createdAt,value
2022-12-01T00:35:49.018Z,16.70
2022-12-01T00:38:15.484Z,17.90
2022-12-01T00:40:42.668Z,18.10
2022-12-01T00:43:09.028Z,17.95
2022-12-01T00:45:35.388Z,19.20
2022-12-01T00:48:01.808Z,18.88
2022-12-01T00:50:28.229Z,18.70
2022-12-01T00:52:54.598Z,19.05
2022-12-01T00:55:20.949Z,19.08
2022-12-01T00:57:47.350Z,19.45
2022-12-01T01:00:14.471Z,19.00
2022-12-01T01:02:40.875Z,19.65
2022-12-01T01:05:07.753Z,19.58
2022-12-01T01:07:34.185Z,18.52
2022-12-01T01:10:00.646Z,18.85
2022-12-01T01:12:27.957Z,19.63
2022-12-01T01:14:54.326Z,19.35
2022-12-01T01:17:20.799Z,19.88
2022-12-01T01:19:47.502Z,21.15
2022-12-01T01:22:14.159Z,19.48
2022-12-01T01:24:40.574Z,20.70
2022-12-01T01:27:06.978Z,20.02
2022-12-01T01:29:33.403Z,19.25
2022-12-01T01:31:59.767Z,18.40
2022-12-01T01:34:26.177Z,22.08
2022-12-01T01:36:52.547Z,20.23
2022-12-01T01:39:18.983Z,18.45
2022-12-01T01:41:45.392Z,18.88
2022-12-01T01:44:45.784Z,20.17
2022-12-01T01:47:13.224Z,18.65
2022-12-01T01:49:41.176Z,17.67
2022-12-01T01:52:07.600Z,20.30
2022-12-01T01:54:39.550Z,20.30
2022-12-01T01:57:09.576Z,19.50
2022-12-01T01:59:45.125Z,19.65
2022-12-01T02:02:12.818Z,19.95
2022-12-01T02:04:47.137Z,19.67
2022-12-01T02:07:17.432Z,19.13
2022-12-01T02:09:44.080Z,20.10
2022-12-01T02:12:25.836Z,19.25
2022-12-01T02:15:17.901Z,20.63
2022-12-01T02:18:04.510Z,19.98
2022-12-01T02:20:39.961Z,19.77
2022-12-01T02:23:30.345Z,21.08
2022-12-01T02:26:31.937Z,21.70
2022-12-01T02:29:25.869Z,18.30
2022-12-01T02:31:59.640Z,19.52
2022-12-01T02:34:34.634Z,20.88
2022-12-01T02:37:32.666Z,19.73
2022-12-01T02:40:03.626Z,20.52
2022-12-01T02:42:50.398Z,21.42
2022-12-01T02:45:42.894Z,21.88
2022-12-01T02:48:20.627Z,21.08
2022-12-01T02:50:47.938Z,21.40
2022-12-01T02:53:17.184Z,22.35
2022-12-01T02:55:52.792Z,22.38
2022-12-01T02:58:19.687Z,23.25
2022-12-01T03:01:10.628Z,26.10
2022-12-01T03:03:52.295Z,25.70
2022-12-01T03:06:23.672Z,25.15
2022-12-01T03:09:09.217Z,27.27
2022-12-01T03:11:43.485Z,25.38
2022-12-01T03:14:33.008Z,26.55
2022-12-01T03:17:08.268Z,26.42
2022-12-01T03:19:44.268Z,26.92
2022-12-01T03:22:16.444Z,27.13
2022-12-01T03:24:48.344Z,28.67
2022-12-01T03:27:20.842Z,28.50
2022-12-01T03:29:51.744Z,28.30
2022-12-01T03:32:24.792Z,27.63
2022-12-01T03:37:41.094Z,24.88
2022-12-01T03:40:11.909Z,26.52
2022-12-01T03:42:46.281Z,28.00
2022-12-01T03:45:19.559Z,26.95
2022-12-01T03:47:46.029Z,27.50
2022-12-01T03:50:14.145Z,28.55
2022-12-01T03:52:47.920Z,28.30
2022-12-01T03:55:32.057Z,28.50
2022-12-01T03:58:08.841Z,27.77
2022-12-01T04:00:35.666Z,30.08
2022-12-01T04:03:04.124Z,29.63
2022-12-01T04:05:32.448Z,28.48
2022-12-01T04:07:59.318Z,26.55
2022-12-01T04:10:25.994Z,28.05
2022-12-01T04:12:58.855Z,28.08
2022-12-01T04:15:27.362Z,25.63
2022-12-01T04:17:54.198Z,27.50
2022-12-01T04:20:21.610Z,27.05
2022-12-01T04:22:48.564Z,28.00
2022-12-01T04:25:15.122Z,27.55
2022-12-01T04:27:41.456Z,26.67
2022-12-01T04:30:08.499Z,27.70
2022-12-01T04:32:39.724Z,28.05
2022-12-01T04:35:07.807Z,28.13
2022-12-01T04:37:34.808Z,27.70
2022-12-01T04:40:01.204Z,28.13
2022-12-01T04:42:27.589Z,27.25
2022-12-01T04:44:53.940Z,28.70
2022-12-01T04:47:20.313Z,30.38
2022-12-01T04:49:46.915Z,28.45
2022-12-01T04:52:13.588Z,28.08
2022-12-01T04:54:40.116Z,27.88
2022-12-01T04:57:06.542Z,29.35
2022-12-01T04:59:32.965Z,27.92
2022-12-01T05:01:59.434Z,28.08
2022-12-01T05:04:26.025Z,28.63
2022-12-01T05:06:55.574Z,27.27
2022-12-01T05:09:21.997Z,28.63
2022-12-01T05:11:48.386Z,29.42
2022-12-01T05:14:14.746Z,27.50
2022-12-01T05:16:41.338Z,29.20
2022-12-01T05:19:26.111Z,28.60
2022-12-01T05:21:52.742Z,27.90
2022-12-01T05:24:20.062Z,28.40
2022-12-01T05:26:46.586Z,28.90
2022-12-01T05:29:13.367Z,28.58
2022-12-01T05:31:40.222Z,28.35
2022-12-01T05:34:07.583Z,27.05
2022-12-01T05:36:34.083Z,29.52
2022-12-01T05:39:00.523Z,29.83
2022-12-01T05:41:26.965Z,27.90
2022-12-01T05:43:53.340Z,30.00
2022-12-01T05:46:19.807Z,30.23
2022-12-01T05:48:47.157Z,28.33
2022-12-01T05:51:16.111Z,29.77
2022-12-01T05:53:43.254Z,29.27
2022-12-01T05:56:09.948Z,29.10
2022-12-01T05:58:36.819Z,30.95
2022-12-01T06:01:03.400Z,28.88
2022-12-01T06:03:29.751Z,29.20
2022-12-01T06:05:56.359Z,30.73
2022-12-01T06:08:23.004Z,29.02
2022-12-01T06:10:49.425Z,29.55
2022-12-01T06:13:15.940Z,29.38
2022-12-01T06:15:42.508Z,29.45
2022-12-01T06:18:09.149Z,31.42
2022-12-01T06:20:35.549Z,31.58
2022-12-01T06:23:01.873Z,30.13
2022-12-01T06:25:28.242Z,31.95
2022-12-01T06:27:58.483Z,29.45
2022-12-01T06:30:25.802Z,29.42
2022-12-01T06:32:52.199Z,30.38
2022-12-01T06:35:18.645Z,28.08
2022-12-01T06:37:45.010Z,28.08
2022-12-01T06:40:11.941Z,29.38
2022-12-01T06:42:38.644Z,29.15
2022-12-01T06:45:05.501Z,26.17
2022-12-01T06:47:31.917Z,29.25
2022-12-01T06:49:58.260Z,27.80
2022-12-01T06:52:24.633Z,26.75
2022-12-01T06:54:51.063Z,25.95
2022-12-01T06:57:17.827Z,25.48
2022-12-01T06:59:44.374Z,25.50
2022-12-01T07:02:11.773Z,24.67
2022-12-01T07:04:38.240Z,22.60
2022-12-01T07:07:05.885Z,24.48
2022-12-01T07:09:32.260Z,24.38
2022-12-01T07:11:58.592Z,22.02
2022-12-01T07:14:26.670Z,23.92
2022-12-01T07:16:53.459Z,23.40
2022-12-01T07:19:19.968Z,23.15
2022-12-01T07:21:46.281Z,20.58
2022-12-01T07:24:12.678Z,21.08
2022-12-01T07:26:40.200Z,20.73
2022-12-01T07:29:07.033Z,20.38
2022-12-01T07:31:33.411Z,19.83
2022-12-01T07:33:59.866Z,19.40
2022-12-01T07:36:26.252Z,19.13
2022-12-01T07:38:52.595Z,20.25
2022-12-01T07:41:19.410Z,19.05
2022-12-01T07:43:46.412Z,17.83
2022-12-01T07:46:21.754Z,17.95
2022-12-01T07:48:49.359Z,19.05
2022-12-01T07:51:16.846Z,18.33
2022-12-01T07:53:47.482Z,19.25
2022-12-01T07:56:14.181Z,19.65
2022-12-01T07:58:40.706Z,21.10
2022-12-01T08:01:19.342Z,20.70
2022-12-01T08:03:48.153Z,21.02
2022-12-01T08:06:14.510Z,21.23
2022-12-01T08:08:41.586Z,24.10
2022-12-01T08:11:12.163Z,22.52
2022-12-01T08:13:39.516Z,25.02
2022-12-01T08:16:07.956Z,25.35
2022-12-01T08:18:39.359Z,26.95
2022-12-01T08:21:07.424Z,29.05
2022-12-01T08:23:34.270Z,28.45
2022-12-01T08:26:05.450Z,30.35
2022-12-01T08:28:32.215Z,29.83
2022-12-01T08:30:58.571Z,30.30
2022-12-01T08:33:24.979Z,31.92
2022-12-01T08:35:51.696Z,31.45
2022-12-01T08:38:18.352Z,29.92
2022-12-01T08:40:44.712Z,31.20
2022-12-01T08:43:23.082Z,32.40
2022-12-01T08:46:00.382Z,30.95
2022-12-01T08:48:29.832Z,30.55
2022-12-01T08:51:03.500Z,32.10
2022-12-01T08:53:30.773Z,30.70
2022-12-01T08:56:02.293Z,32.38
2022-12-01T08:58:29.260Z,32.78
2022-12-01T09:01:03.733Z,32.92
2022-12-01T09:03:31.020Z,32.67
2022-12-01T09:06:05.979Z,31.95
2022-12-01T09:08:33.977Z,32.00
2022-12-01T09:11:02.077Z,34.55
2022-12-01T09:13:29.565Z,35.40
2022-12-01T09:15:58.619Z,33.13
2022-12-01T09:18:25.586Z,32.50
2022-12-01T09:20:52.685Z,33.47
2022-12-01T09:23:19.321Z,32.20
2022-12-01T09:25:45.784Z,33.30
2022-12-01T09:28:12.147Z,33.05
2022-12-01T09:30:38.552Z,32.50
2022-12-01T09:33:05.060Z,34.50
2022-12-01T09:35:32.224Z,33.42
2022-12-01T09:37:58.889Z,35.80
2022-12-01T09:40:31.521Z,35.63
2022-12-01T09:43:02.711Z,35.17
2022-12-01T09:45:33.519Z,35.13
2022-12-01T09:48:02.684Z,35.58
2022-12-01T09:50:30.794Z,34.60
2022-12-01T09:53:02.197Z,35.80
2022-12-01T09:55:31.400Z,33.33
2022-12-01T09:57:59.964Z,33.83
2022-12-01T10:00:30.414Z,33.88
2022-12-01T10:03:09.695Z,33.88
2022-12-01T10:09:18.083Z,34.13
2022-12-01T10:11:46.826Z,35.92
2022-12-01T10:14:20.033Z,35.05
2022-12-01T10:17:03.813Z,35.78
2022-12-01T10:22:23.830Z,32.20
2022-12-01T10:25:10.407Z,34.40
2022-12-01T10:28:05.908Z,36.08
2022-12-01T10:30:39.172Z,35.47
2022-12-01T10:33:19.995Z,36.83
2022-12-01T10:35:46.547Z,38.13
2022-12-01T10:38:22.556Z,39.08
2022-12-01T10:40:50.790Z,37.85
2022-12-01T10:43:17.226Z,35.45
2022-12-01T10:45:44.649Z,36.60
2022-12-01T10:48:22.172Z,35.10
2022-12-01T10:50:53.636Z,37.85
2022-12-01T10:53:26.772Z,36.20
2022-12-01T10:56:04.566Z,35.63
2022-12-01T10:58:34.123Z,38.22
2022-12-01T11:01:05.898Z,36.35
2022-12-01T11:03:35.730Z,37.17
2022-12-01T11:06:04.606Z,38.10
2022-12-01T11:08:40.706Z,38.25
2022-12-01T11:11:22.727Z,39.17
2022-12-01T11:13:49.184Z,37.13
2022-12-01T11:16:36.270Z,38.97
2022-12-01T11:19:34.383Z,38.67
2022-12-01T11:22:25.754Z,37.65
2022-12-01T11:24:55.235Z,37.03
2022-12-01T11:27:27.680Z,39.08
2022-12-01T11:30:02.734Z,38.92
2022-12-01T11:32:32.386Z,39.40
2022-12-01T11:35:00.496Z,38.13
2022-12-01T11:37:37.908Z,38.58
2022-12-01T11:40:20.510Z,37.10
2022-12-01T11:42:52.489Z,38.92
2022-12-01T11:45:18.992Z,39.55
2022-12-01T11:48:03.402Z,39.70
2022-12-01T11:50:32.541Z,40.95
2022-12-01T11:52:59.033Z,37.90
2022-12-01T11:55:28.003Z,38.90
2022-12-01T11:58:01.643Z,38.85
2022-12-01T12:00:40.985Z,37.72
2022-12-01T12:03:40.868Z,37.28
2022-12-01T12:06:39.818Z,36.42
2022-12-01T12:09:35.162Z,37.78
2022-12-01T12:12:24.225Z,37.38
2022-12-01T12:15:07.673Z,37.00
2022-12-01T12:17:43.268Z,36.85
2022-12-01T12:20:31.823Z,38.47
2022-12-01T12:23:19.467Z,38.42
2022-12-01T12:26:10.761Z,37.53
2022-12-01T12:28:56.885Z,37.70
2022-12-01T12:31:23.247Z,39.03
2022-12-01T12:34:22.722Z,37.95
2022-12-01T12:36:58.834Z,36.63
2022-12-01T12:39:52.949Z,37.03
2022-12-01T12:42:36.012Z,36.10
2022-12-01T12:45:16.898Z,37.70
2022-12-01T12:48:11.194Z,37.13
2022-12-01T12:50:40.707Z,36.22
2022-12-01T12:53:21.238Z,37.80
2022-12-01T12:55:56.651Z,36.50
2022-12-01T12:58:35.612Z,35.97
2022-12-01T13:01:22.201Z,39.28
2022-12-01T13:04:18.418Z,37.33
2022-12-01T13:06:55.875Z,35.58
2022-12-01T13:09:53.728Z,37.30
2022-12-01T13:12:31.662Z,35.42
2022-12-01T13:15:13.428Z,35.97
2022-12-01T13:17:43.634Z,34.83
2022-12-01T13:20:20.569Z,34.83
2022-12-01T13:22:47.948Z,37.20
2022-12-01T13:25:17.518Z,35.28
2022-12-01T13:27:45.558Z,35.22
2022-12-01T13:30:22.455Z,36.33
2022-12-01T13:32:49.626Z,36.28
2022-12-01T13:35:18.993Z,35.47
2022-12-01T13:37:45.299Z,34.88
2022-12-01T13:40:31.264Z,36.80
2022-12-01T13:43:08.627Z,36.13
2022-12-01T13:45:38.170Z,35.65
2022-12-01T13:48:06.411Z,34.85
2022-12-01T13:50:43.520Z,36.15
2022-12-01T13:53:14.635Z,37.58
2022-12-01T13:55:59.770Z,37.22
2022-12-01T13:58:32.556Z,34.60
2022-12-01T14:01:21.098Z,37.63
2022-12-01T14:04:00.975Z,37.30
2022-12-01T14:06:30.857Z,35.10
2022-12-01T14:09:26.319Z,37.20
2022-12-01T14:12:03.187Z,36.05
2022-12-01T14:14:39.087Z,34.08
2022-12-01T14:17:05.919Z,36.28
2022-12-01T14:19:52.713Z,34.97
2022-12-01T14:22:43.981Z,34.88
2022-12-01T14:25:19.518Z,34.70
2022-12-01T14:27:47.894Z,33.92
2022-12-01T14:30:39.126Z,33.95
2022-12-01T14:33:39.607Z,31.33
2022-12-01T14:36:34.150Z,31.05
2022-12-01T14:39:03.653Z,30.75
2022-12-01T14:41:51.994Z,32.28
2022-12-01T14:44:31.431Z,32.10
2022-12-01T14:47:17.804Z,32.88
2022-12-01T14:50:05.976Z,32.70
2022-12-01T14:52:37.134Z,31.15
2022-12-01T14:55:12.322Z,31.98
2022-12-01T14:57:43.982Z,33.03
2022-12-01T15:00:24.602Z,34.67
2022-12-01T15:02:56.726Z,32.83
2022-12-01T15:05:27.194Z,32.63
2022-12-01T15:08:02.439Z,31.52
2022-12-01T15:10:51.175Z,30.80
2022-12-01T15:13:24.636Z,31.83
2022-12-01T15:15:53.719Z,33.15
2022-12-01T15:18:32.370Z,30.75
2022-12-01T15:21:05.209Z,29.88
2022-12-01T15:23:31.637Z,31.67
2022-12-01T15:25:58.434Z,30.38
2022-12-01T15:28:35.897Z,31.50
2022-12-01T15:31:09.734Z,31.92
2022-12-01T15:33:38.933Z,30.27
2022-12-01T15:36:07.502Z,32.08
2022-12-01T15:38:37.763Z,32.50
2022-12-01T15:41:28.540Z,30.20
2022-12-01T15:44:05.379Z,29.77
2022-12-01T15:46:34.407Z,30.67
2022-12-01T15:49:19.743Z,30.52
2022-12-01T15:51:48.298Z,29.75
2022-12-01T15:54:21.308Z,31.15
2022-12-01T15:59:27.415Z,27.98
2022-12-01T16:01:54.097Z,29.45
2022-12-01T16:04:24.018Z,31.33
2022-12-01T16:07:04.751Z,30.67
2022-12-01T16:09:31.060Z,30.50
2022-12-01T16:12:23.060Z,32.00
2022-12-01T16:15:03.258Z,30.75
2022-12-01T16:17:51.477Z,30.17
2022-12-01T16:20:35.417Z,30.88
2022-12-01T16:23:09.029Z,30.10
2022-12-01T16:25:38.017Z,30.25
2022-12-01T16:28:06.365Z,30.08
2022-12-01T16:30:38.558Z,28.45
2022-12-01T16:33:38.026Z,28.65
2022-12-01T16:36:04.585Z,27.77
2022-12-01T16:38:31.169Z,30.05
2022-12-01T16:41:02.316Z,29.13
2022-12-01T16:43:29.241Z,29.20
2022-12-01T16:46:03.694Z,29.02
2022-12-01T16:48:31.128Z,28.90
2022-12-01T16:51:02.460Z,29.50
2022-12-01T16:53:28.782Z,31.00
2022-12-01T16:56:00.754Z,29.85
2022-12-01T16:58:27.737Z,30.80
2022-12-01T17:00:54.608Z,28.70
2022-12-01T17:03:24.163Z,30.63
2022-12-01T17:05:51.627Z,29.42
2022-12-01T17:08:18.136Z,29.90
2022-12-01T17:10:46.795Z,29.50
2022-12-01T17:13:13.726Z,27.30
2022-12-01T17:15:41.927Z,29.10
2022-12-01T17:18:09.147Z,28.70
2022-12-01T17:20:35.516Z,27.17
2022-12-01T17:23:01.988Z,24.90
2022-12-01T17:25:28.468Z,26.48
2022-12-01T17:27:54.884Z,26.58
2022-12-01T17:30:21.212Z,26.33
2022-12-01T17:32:47.610Z,26.52
2022-12-01T17:35:14.110Z,27.70
2022-12-01T17:37:40.547Z,28.35
2022-12-01T17:40:10.318Z,27.52
2022-12-01T17:42:36.937Z,27.23
2022-12-01T17:45:13.637Z,27.60
2022-12-01T17:47:40.157Z,25.75
2022-12-01T17:50:07.326Z,27.35
2022-12-01T17:52:33.850Z,27.50
2022-12-01T17:55:00.461Z,28.10
2022-12-01T17:57:26.928Z,26.52
2022-12-01T17:59:53.439Z,27.00
2022-12-01T18:02:19.937Z,27.15
2022-12-01T18:04:46.521Z,27.63
2022-12-01T18:07:13.490Z,28.60
2022-12-01T18:09:39.981Z,27.15
2022-12-01T18:12:06.547Z,28.60
2022-12-01T18:14:34.573Z,28.52
2022-12-01T18:17:01.070Z,29.52
2022-12-01T18:19:27.587Z,27.67
2022-12-01T18:21:54.044Z,27.55
2022-12-01T18:24:20.523Z,27.73
2022-12-01T18:26:47.071Z,28.40
2022-12-01T18:29:18.402Z,28.00
2022-12-01T18:31:45.863Z,28.27
2022-12-01T18:34:12.448Z,26.92
2022-12-01T18:36:40.807Z,26.88
2022-12-01T18:39:09.230Z,26.73
2022-12-01T18:41:36.595Z,27.27
2022-12-01T18:44:03.660Z,28.73
2022-12-01T18:46:30.225Z,27.73
2022-12-01T18:49:04.671Z,27.40
2022-12-01T18:51:33.579Z,25.45
2022-12-01T18:54:01.852Z,28.35
2022-12-01T18:56:29.533Z,26.50
2022-12-01T18:59:01.712Z,29.00
2022-12-01T19:01:32.212Z,27.77
2022-12-01T19:04:00.041Z,27.42
2022-12-01T19:06:28.079Z,28.25
2022-12-01T19:08:55.244Z,26.55
2022-12-01T19:11:22.197Z,27.55
2022-12-01T19:13:48.727Z,27.92
2022-12-01T19:16:17.653Z,26.48
2022-12-01T19:18:45.085Z,28.55
2022-12-01T19:21:14.373Z,26.63
2022-12-01T19:23:41.229Z,26.85
2022-12-01T19:26:13.105Z,27.90
2022-12-01T19:28:42.122Z,27.90
2022-12-01T19:31:11.156Z,27.23
2022-12-01T19:33:38.170Z,26.90
2022-12-01T19:36:10.790Z,26.25
2022-12-01T19:38:37.545Z,28.15
2022-12-01T19:41:05.257Z,29.50
2022-12-01T19:43:33.978Z,28.50
2022-12-01T19:46:06.742Z,28.77
2022-12-01T19:48:33.449Z,29.35
2022-12-01T19:51:00.153Z,27.45
2022-12-01T19:53:31.866Z,28.73
2022-12-01T19:56:02.016Z,28.17
2022-12-01T19:58:28.599Z,30.20
2022-12-01T20:00:55.202Z,28.02
2022-12-01T20:03:21.738Z,28.65
2022-12-01T20:05:48.208Z,29.08
2022-12-01T20:08:14.596Z,29.08
2022-12-01T20:11:01.387Z,27.58
2022-12-01T20:13:28.432Z,25.33
2022-12-01T20:15:54.905Z,28.40
2022-12-01T20:18:21.387Z,26.98
2022-12-01T20:20:48.124Z,26.92
2022-12-01T20:23:14.597Z,27.65
2022-12-01T20:25:41.101Z,26.70
2022-12-01T20:28:07.574Z,28.35
2022-12-01T20:30:33.985Z,26.75
2022-12-01T20:33:00.459Z,26.50
2022-12-01T20:35:27.016Z,27.08
2022-12-01T20:37:53.601Z,27.15
2022-12-01T20:40:20.189Z,25.38
2022-12-01T20:42:46.641Z,25.30
2022-12-01T20:45:13.159Z,24.52
2022-12-01T20:47:40.339Z,23.80
2022-12-01T20:50:07.170Z,24.23
2022-12-01T20:52:33.640Z,22.92
2022-12-01T20:55:00.200Z,23.65
2022-12-01T20:57:27.910Z,23.40
2022-12-01T20:59:54.333Z,22.48
2022-12-01T21:02:20.854Z,24.15
2022-12-01T21:04:47.514Z,23.38
2022-12-01T21:07:14.062Z,25.02
2022-12-01T21:09:40.588Z,24.52
2022-12-01T21:12:33.473Z,22.70
2022-12-01T21:15:08.829Z,23.95
2022-12-01T21:17:45.530Z,24.15
2022-12-01T21:20:31.673Z,24.05
2022-12-01T21:23:02.381Z,23.85
2022-12-01T21:25:28.866Z,24.73
2022-12-01T21:28:01.035Z,23.23
2022-12-01T21:30:29.743Z,17.52
2022-12-01T21:33:15.953Z,24.80
2022-12-01T21:35:42.656Z,22.42
2022-12-01T21:38:16.512Z,24.17
2022-12-01T21:40:46.657Z,23.48
2022-12-01T21:43:24.386Z,23.42
2022-12-01T21:46:06.759Z,25.15
2022-12-01T21:48:36.473Z,23.92
2022-12-01T21:51:12.756Z,24.77
2022-12-01T21:53:39.657Z,24.23
2022-12-01T21:56:19.573Z,25.42
2022-12-01T21:58:46.345Z,24.77
2022-12-01T22:01:30.748Z,24.65
2022-12-01T22:04:02.340Z,24.35
2022-12-01T22:06:37.648Z,26.42
2022-12-01T22:09:24.562Z,25.52
2022-12-01T22:12:12.414Z,24.13
2022-12-01T22:14:39.549Z,25.35
2022-12-01T22:17:05.973Z,26.60
2022-12-01T22:19:38.287Z,26.45
2022-12-01T22:22:11.047Z,27.08
2022-12-01T22:24:43.456Z,25.27
2022-12-01T22:27:27.219Z,25.58
2022-12-01T22:30:10.673Z,24.00
2022-12-01T22:32:49.298Z,24.73
2022-12-01T22:35:15.745Z,25.70
2022-12-01T22:37:48.051Z,25.50
2022-12-01T22:40:33.579Z,27.02
2022-12-01T22:43:15.594Z,26.45
2022-12-01T22:45:49.249Z,24.90
2022-12-01T22:48:25.724Z,26.27
2022-12-01T22:50:52.280Z,25.75
2022-12-01T22:53:23.587Z,26.77
2022-12-01T22:55:55.020Z,25.20
2022-12-01T22:58:26.168Z,25.55
2022-12-01T23:00:54.400Z,25.95
2022-12-01T23:03:20.978Z,27.35
2022-12-01T23:05:53.388Z,26.63
2022-12-01T23:08:22.338Z,25.63
2022-12-01T23:10:49.317Z,25.08
2022-12-01T23:13:20.585Z,26.33
2022-12-01T23:15:50.603Z,24.45
2022-12-01T23:18:29.496Z,25.95
2022-12-01T23:21:04.964Z,24.73
2022-12-01T23:23:33.753Z,24.02
2022-12-01T23:26:06.109Z,24.48
2022-12-01T23:28:35.598Z,24.02
2022-12-01T23:31:02.167Z,22.77
2022-12-01T23:33:31.661Z,23.38
2022-12-01T23:36:20.405Z,22.85
2022-12-01T23:38:50.179Z,21.55
2022-12-01T23:41:33.586Z,21.83
2022-12-01T23:44:21.327Z,21.88
2022-12-01T23:46:50.829Z,22.88
2022-12-01T23:49:22.307Z,22.42
2022-12-01T23:51:52.848Z,21.63
2022-12-01T23:54:28.960Z,21.70
2022-12-01T23:57:01.372Z,22.67
2022-12-01T23:59:29.835Z,22.48
